Main page
METAR-TAF:

METAR-TAF

Airports :

Stuttgart Municipal Airport

Stuttgart, Arkansas, United States

latitude: 34-36N, longitude: 091-34W, elevation: 223 ft

Current weather observation

The report was made 13 minutes ago, at 02:56 UTC
Wind 3 mph from the Southeast
Temperature 88°F
Humidity 79%
Pressure 29.91 in. Hg
Clear sky

METAR: KSGT 250256Z AUTO 13003KT CLR 31/27 A2991 RMK AO2 SLP126 T03110267 53005 PWINO RVRNO $

Time: 22:09 (03:09 UTC)


TAF: missing

Weather observations and forecasts of more than 4000 airports (METAR and TAF reports).

The available stations are represented by yellow and red dots on the map.

Hover mouse over dot to see the name of the station.

Then click to see weather observations and forecasts.

To change the map : click on the green buttons with a black cross to zoom in, on the green button with a dash to zoom out, or on the green arrows for adjacent maps.


METAR-TAF: